Mahajanga, Madagascar
Current Conditions -  °F | °C
As of 8:00 PM on Thursday 27 Nov 2014 (Local Time) from FMNM Reporting Station
Few Clouds Few Clouds  
Wind Chill: 82°   Ceiling: Unl
Heat Index: 91°   Visibility: 6mi
Dew Point: 77°   Wind: 9mph
Humidity: 84%   Direction: 240°WSW
Pressure: 29.77"   Gusts: NA
Location:  15.72°S, 46.31°E
Report Text: FMNM 271700Z 24008KT 9999 FEW020 28/25 Q1008 NOSIG
Loading
Personal Weather Stations






























Interactive Weather Map New forecast layout! Learn more

10-Day Weather Forecast

Advertisements
Track Severe Weather on mobile